Time;durP1;ratioP1;P1;durP2;ratioP2;P2;SDS_P1;SDS_P2;PMS_P1;PMS_P2;Temp;Humidity;BMP_temperature;BMP_pressure;BME280_temperature;BME280_humidity;BME280_pressure;Samples;Min_cycle;Max_cycle;Signal;HPM_P1;HPM_P2
2021/05/12 00:00:27;;;;;;;25.80;23.10;;;18.10;99.90;;;;;;5070976;28;20611;-59
2021/05/12 00:02:53;;;;;;;24.57;22.13;;;18.10;99.90;;;;;;5072158;28;20195;-59
2021/05/12 00:05:21;;;;;;;23.80;21.50;;;21.50;99.90;;;;;;5070656;28;20193;-59
2021/05/12 00:07:47;;;;;;;26.63;21.83;;;18.10;99.90;;;;;;5069139;28;20468;-59
2021/05/12 00:10:13;;;;;;;24.07;21.70;;;18.50;99.90;;;;;;5067825;28;20451;-59
2021/05/12 00:12:40;;;;;;;23.37;21.17;;;17.90;99.90;;;;;;5070404;28;20545;-60
2021/05/12 00:15:10;;;;;;;26.40;22.93;;;17.80;99.90;;;;;;5075701;28;20450;-59
2021/05/12 00:17:37;;;;;;;23.63;21.07;;;17.80;99.90;;;;;;5074191;28;20473;-59
2021/05/12 00:20:05;;;;;;;24.63;22.03;;;17.90;99.90;;;;;;5074101;28;20445;-59
2021/05/12 00:22:43;;;;;;;24.00;21.70;;;17.90;99.90;;;;;;5071949;28;20480;-59
2021/05/12 00:25:10;;;;;;;23.67;21.33;;;17.90;99.90;;;;;;5076863;28;20444;-59
2021/05/12 00:27:36;;;;;;;20.63;18.60;;;17.90;99.90;;;;;;5068716;28;20911;-59
2021/05/12 00:30:05;;;;;;;21.17;18.70;;;17.90;99.90;;;;;;5077635;28;20469;-59
2021/05/12 00:32:30;;;;;;;20.90;18.70;;;18.00;99.90;;;;;;5069256;28;20808;-59
2021/05/12 00:34:56;;;;;;;19.37;17.43;;;18.00;99.90;;;;;;5075175;28;20460;-62
2021/05/12 00:37:21;;;;;;;15.73;14.23;;;17.90;99.90;;;;;;5066199;28;20183;-59
2021/05/12 00:39:47;;;;;;;13.77;12.40;;;17.90;99.90;;;;;;5067701;28;20183;-60
2021/05/12 00:42:12;;;;;;;13.10;11.43;;;17.80;99.90;;;;;;5072605;28;20178;-59
2021/05/12 00:44:38;;;;;;;12.63;11.43;;;17.60;99.90;;;;;;5069305;28;20671;-59
2021/05/12 00:47:05;;;;;;;12.10;10.80;;;17.60;99.90;;;;;;5068507;28;20198;-59
2021/05/12 00:49:34;;;;;;;12.33;11.10;;;17.50;99.90;;;;;;5070371;28;20191;-60
2021/05/12 00:52:01;;;;;;;13.60;12.33;;;17.70;99.90;;;;;;5069324;28;20815;-59
2021/05/12 00:54:27;;;;;;;12.97;11.00;;;17.80;99.90;;;;;;5067053;28;20461;-59
2021/05/12 00:56:53;;;;;;;12.20;11.10;;;17.70;99.90;;;;;;5066231;28;20533;-59
2021/05/12 00:59:19;;;;;;;13.23;12.00;;;17.60;99.90;;;;;;5064923;28;20951;-59
2021/05/12 01:01:45;;;;;;;12.57;11.47;;;17.60;99.90;;;;;;5062157;28;20437;-59
2021/05/12 01:04:10;;;;;;;13.57;12.17;;;17.60;99.90;;;;;;5063462;28;20820;-60
2021/05/12 01:06:40;;;;;;;15.00;13.47;;;17.50;99.90;;;;;;5064801;28;20187;-58
2021/05/12 01:09:07;;;;;;;15.00;13.47;;;17.50;99.90;;;;;;5067542;28;20200;-58
2021/05/12 01:11:33;;;;;;;16.80;15.10;;;17.40;99.90;;;;;;5061387;28;20897;-59
2021/05/12 01:13:59;;;;;;;17.57;15.60;;;17.40;99.90;;;;;;5066627;28;20563;-59
2021/05/12 01:16:25;;;;;;;16.53;14.77;;;17.40;99.90;;;;;;5066373;28;20529;-59
2021/05/12 01:18:50;;;;;;;17.40;15.43;;;17.50;99.90;;;;;;5068920;28;20183;-59
2021/05/12 01:21:16;;;;;;;17.00;15.20;;;17.40;99.90;;;;;;5067413;28;20198;-60
2021/05/12 01:23:46;;;;;;;19.70;15.97;;;17.40;99.90;;;;;;5064349;28;20218;-59
2021/05/12 01:26:15;;;;;;;16.53;14.50;;;17.50;99.90;;;;;;5069620;28;21498;-59
2021/05/12 01:28:46;;;;;;;19.60;17.60;;;17.50;99.90;;;;;;5066308;28;20456;-59
2021/05/12 01:31:21;;;;;;;21.43;18.07;;;17.60;99.90;;;;;;5069300;28;20469;-59
2021/05/12 01:33:49;;;;;;;19.73;17.00;;;17.60;99.90;;;;;;5064930;28;20456;-59
2021/05/12 01:36:15;;;;;;;20.73;18.17;;;17.50;99.90;;;;;;5073014;28;20445;-59
2021/05/12 01:38:43;;;;;;;24.53;18.27;;;17.50;99.90;;;;;;5067445;28;20938;-59
2021/05/12 01:41:09;;;;;;;21.27;19.10;;;17.50;99.90;;;;;;5065915;28;20206;-59
2021/05/12 01:43:36;;;;;;;21.00;18.67;;;17.50;99.90;;;;;;5070200;28;20803;-59
2021/05/12 01:46:02;;;;;;;25.40;20.47;;;17.60;99.90;;;;;;5068517;28;21011;-59
2021/05/12 01:48:29;;;;;;;24.67;21.20;;;17.60;99.90;;;;;;5067378;28;20973;-59
2021/05/12 01:50:55;;;;;;;25.77;21.70;;;17.50;99.90;;;;;;5070474;28;20455;-59
2021/05/12 01:53:21;;;;;;;24.73;21.50;;;17.40;99.90;;;;;;5068009;28;21033;-59
2021/05/12 01:55:48;;;;;;;28.03;22.03;;;17.30;99.90;;;;;;5071574;28;20274;-59
2021/05/12 01:58:14;;;;;;;30.73;21.33;;;17.10;99.90;;;;;;5072456;28;20955;-59
2021/05/12 02:00:44;;;;;;;28.50;23.07;;;17.10;99.90;;;;;;5073935;28;20441;-59
2021/05/12 02:03:11;;;;;;;25.97;22.87;;;17.10;99.90;;;;;;5070377;28;20437;-59
2021/05/12 02:05:38;;;;;;;28.90;22.67;;;17.00;99.90;;;;;;5074465;28;20450;-59
2021/05/12 02:08:06;;;;;;;28.27;21.63;;;17.00;99.90;;;;;;5073748;28;20441;-59
2021/05/12 02:10:32;;;;;;;29.90;23.10;;;17.10;99.90;;;;;;5071706;28;20457;-59
2021/05/12 02:12:58;;;;;;;29.47;22.20;;;17.00;99.90;;;;;;5072115;28;20465;-59
2021/05/12 02:15:25;;;;;;;26.50;20.40;;;17.00;99.90;;;;;;5073142;28;20472;-59
2021/05/12 02:17:51;;;;;;;22.53;20.10;;;17.00;99.90;;;;;;5071231;28;20986;-59
2021/05/12 02:20:24;;;;;;;22.10;19.63;;;17.10;99.90;;;;;;5071220;28;20823;-59
2021/05/12 02:22:50;;;;;;;25.77;21.70;;;17.10;99.90;;;;;;5073812;28;20831;-58
2021/05/12 02:25:16;;;;;;;24.83;19.87;;;17.10;99.90;;;;;;5075250;28;20537;-59
2021/05/12 02:27:42;;;;;;;24.23;21.30;;;17.10;99.90;;;;;;5070214;28;21026;-59
2021/05/12 02:30:11;;;;;;;23.27;20.77;;;17.00;99.90;;;;;;5070351;28;20622;-59
2021/05/12 02:32:37;;;;;;;25.60;20.03;;;17.10;99.90;;;;;;5070257;28;20202;-60
2021/05/12 02:35:04;;;;;;;23.90;19.90;;;17.20;99.90;;;;;;5069563;28;20441;-59
2021/05/12 02:37:30;;;;;;;23.53;20.30;;;17.10;99.90;;;;;;5073958;28;20449;-59
2021/05/12 02:39:55;;;;;;;20.90;18.70;;;17.20;99.90;;;;;;5080916;28;20453;-59
2021/05/12 02:42:21;;;;;;;23.63;20.80;;;17.00;99.90;;;;;;5069882;28;20191;-58
2021/05/12 02:44:47;;;;;;;25.73;20.10;;;17.10;99.90;;;;;;5069779;28;20191;-60
2021/05/12 02:47:13;;;;;;;26.60;19.93;;;17.10;99.90;;;;;;5078527;28;20459;-59
2021/05/12 02:49:39;;;;;;;23.90;21.10;;;17.20;99.90;;;;;;5067682;28;20196;-59
2021/05/12 02:52:05;;;;;;;24.17;21.60;;;17.20;99.90;;;;;;5077612;28;20271;-59
2021/05/12 02:54:32;;;;;;;26.87;21.70;;;17.20;99.90;;;;;;5085554;28;20265;-59
2021/05/12 02:56:57;;;;;;;25.43;22.13;;;17.10;99.90;;;;;;5071998;28;20454;-59
2021/05/12 02:59:23;;;;;;;29.67;21.70;;;17.00;99.90;;;;;;5072530;28;20926;-59
2021/05/12 03:01:49;;;;;;;24.50;21.87;;;17.20;99.90;;;;;;5070624;28;20184;-59
2021/05/12 03:04:14;;;;;;;22.93;20.63;;;17.10;99.90;;;;;;5071238;28;20460;-59
2021/05/12 03:06:40;;;;;;;22.73;19.90;;;17.20;99.90;;;;;;5070321;28;20187;-59
2021/05/12 03:09:07;;;;;;;22.67;20.13;;;17.20;99.90;;;;;;5070365;28;20191;-60
2021/05/12 03:11:34;;;;;;;22.80;20.37;;;17.20;99.90;;;;;;5075115;28;20248;-59
2021/05/12 03:14:01;;;;;;;25.80;21.47;;;17.40;99.90;;;;;;5070104;28;20868;-59
2021/05/12 03:16:29;;;;;;;24.33;20.60;;;17.30;99.90;;;;;;5077225;28;20440;-59
2021/05/12 03:18:55;;;;;;;25.90;21.03;;;17.30;99.90;;;;;;5068831;28;20444;-59
2021/05/12 03:21:20;;;;;;;26.17;21.30;;;17.30;99.90;;;;;;5072995;28;20435;-59
2021/05/12 03:23:48;;;;;;;28.83;22.50;;;17.30;99.90;;;;;;5078777;28;20480;-59
2021/05/12 03:26:13;;;;;;;26.33;22.47;;;17.20;99.90;;;;;;5073089;28;20179;-59
2021/05/12 03:28:39;;;;;;;23.70;19.33;;;17.30;99.90;;;;;;5074902;28;20965;-59
2021/05/12 03:31:04;;;;;;;24.77;20.80;;;17.30;99.90;;;;;;5067831;28;20692;-59
2021/05/12 03:33:30;;;;;;;23.87;20.70;;;17.30;99.90;;;;;;5075419;28;20269;-59
2021/05/12 03:35:55;;;;;;;22.30;19.30;;;17.40;99.90;;;;;;5067610;28;20633;-59
2021/05/12 03:38:21;;;;;;;21.37;18.23;;;17.40;99.90;;;;;;5065741;28;20180;-59
2021/05/12 03:40:46;;;;;;;20.50;18.47;;;17.30;99.90;;;;;;5071272;28;20190;-59
2021/05/12 03:43:12;;;;;;;22.97;17.80;;;17.40;99.90;;;;;;5071728;28;20196;-59
2021/05/12 03:45:38;;;;;;;21.00;17.13;;;17.50;99.90;;;;;;5070873;28;20203;-59
2021/05/12 03:48:06;;;;;;;19.27;17.27;;;17.40;99.90;;;;;;5069084;28;20227;-59
2021/05/12 03:50:32;;;;;;;20.27;18.07;;;17.30;99.90;;;;;;5073065;28;20450;-59
2021/05/12 03:52:58;;;;;;;20.73;18.50;;;17.40;99.90;;;;;;5070495;28;20469;-59
2021/05/12 03:55:24;;;;;;;20.73;18.17;;;17.30;99.90;;;;;;5070883;28;20215;-59
2021/05/12 03:57:51;;;;;;;21.10;18.10;;;17.30;99.90;;;;;;5072271;28;20188;-59
2021/05/12 04:00:17;;;;;;;22.70;17.17;;;17.50;99.90;;;;;;5078320;28;20441;-59
2021/05/12 04:02:43;;;;;;;18.83;16.83;;;17.40;99.90;;;;;;5071807;28;20446;-59
2021/05/12 04:05:12;;;;;;;19.23;16.57;;;17.30;99.90;;;;;;5071799;28;20448;-59
2021/05/12 04:07:37;;;;;;;18.57;15.33;;;17.30;99.90;;;;;;5071800;28;20179;-59
2021/05/12 04:10:08;;;;;;;19.00;16.03;;;17.30;99.90;;;;;;5071458;28;20435;-58
2021/05/12 04:12:33;;;;;;;19.40;15.60;;;17.40;97.70;;;;;;5068414;28;20241;-59
2021/05/12 04:14:59;;;;;;;18.73;15.37;;;17.40;99.90;;;;;;5071838;28;20437;-59
2021/05/12 04:17:26;;;;;;;17.03;14.70;;;17.40;99.90;;;;;;5070273;28;20187;-59
2021/05/12 04:19:52;;;;;;;19.07;15.47;;;17.30;99.80;;;;;;5070882;28;20438;-58
2021/05/12 04:22:18;;;;;;;21.13;14.50;;;17.50;90.50;;;;;;5071301;28;20527;-59
2021/05/12 04:24:44;;;;;;;16.13;14.00;;;17.30;96.70;;;;;;5071806;28;20524;-59
2021/05/12 04:27:11;;;;;;;18.27;14.20;;;17.40;93.70;;;;;;5069877;28;20198;-59
2021/05/12 04:29:36;;;;;;;18.77;14.77;;;17.30;91.20;;;;;;5071365;28;20191;-59
2021/05/12 04:32:03;;;;;;;14.37;12.90;;;17.50;94.50;;;;;;5070362;28;20858;-59
2021/05/12 04:34:29;;;;;;;15.90;13.10;;;17.20;98.40;;;;;;5068764;28;20206;-59
2021/05/12 04:36:55;;;;;;;14.90;12.97;;;17.20;99.90;;;;;;5072254;28;20935;-59
2021/05/12 04:39:20;;;;;;;14.77;13.10;;;17.30;94.30;;;;;;5075264;28;20185;-58
2021/05/12 04:41:46;;;;;;;14.70;12.60;;;17.30;94.90;;;;;;5072317;28;20540;-59
2021/05/12 04:44:12;;;;;;;16.10;12.73;;;17.30;95.70;;;;;;5071266;28;20183;-59
2021/05/12 04:46:39;;;;;;;16.07;12.30;;;17.50;76.90;;;;;;5070080;28;20183;-59
2021/05/12 04:49:05;;;;;;;14.03;12.03;;;17.50;80.30;;;;;;5074931;28;20179;-59
2021/05/12 04:51:33;;;;;;;19.17;13.27;;;17.40;90.40;;;;;;5068341;28;20445;-58
2021/05/12 04:53:59;;;;;;;13.53;11.83;;;17.40;83.80;;;;;;5074759;28;20469;-60
2021/05/12 04:56:24;;;;;;;13.53;10.97;;;17.40;82.90;;;;;;5071327;28;20795;-59
2021/05/12 04:58:52;;;;;;;12.87;11.53;;;17.40;67.70;;;;;;5075256;28;20545;-60
2021/05/12 05:01:17;;;;;;;13.53;11.80;;;17.30;84.90;;;;;;5079410;28;20202;-60
2021/05/12 05:03:43;;;;;;;12.90;11.00;;;17.40;89.70;;;;;;5073547;28;20444;-59
2021/05/12 05:06:10;;;;;;;14.40;11.73;;;17.50;75.40;;;;;;5075715;28;20472;-59
2021/05/12 05:08:35;;;;;;;15.80;11.13;;;17.70;54.10;;;;;;5076072;28;20194;-59
2021/05/12 05:11:01;;;;;;;13.30;10.20;;;17.60;38.00;;;;;;5072440;28;20984;-59
2021/05/12 05:13:26;;;;;;;13.67;11.30;;;17.60;41.10;;;;;;5071156;28;20241;-59
2021/05/12 05:15:52;;;;;;;12.33;11.03;;;17.60;34.80;;;;;;5070655;28;20187;-58
2021/05/12 05:18:18;;;;;;;12.40;10.50;;;17.50;24.70;;;;;;5078425;28;20190;-59
2021/05/12 05:20:43;;;;;;;11.80;10.57;;;17.50;31.20;;;;;;5075517;28;20262;-61
2021/05/12 05:23:09;;;;;;;12.43;10.60;;;17.50;28.50;;;;;;5073554;28;20278;-59
2021/05/12 05:25:34;;;;;;;10.97;9.30;;;17.60;20.60;;;;;;5082985;28;20217;-59
2021/05/12 05:28:00;;;;;;;11.43;10.23;;;17.50;20.80;;;;;;5073073;28;20214;-59
2021/05/12 05:30:26;;;;;;;14.10;10.80;;;17.60;21.30;;;;;;5082102;28;20583;-58
2021/05/12 05:32:57;;;;;;;13.27;11.07;;;17.70;11.10;;;;;;5077024;28;20210;-59
2021/05/12 05:35:22;;;;;;;12.70;9.93;;;17.60;13.70;;;;;;5075951;28;20216;-59
2021/05/12 05:37:48;;;;;;;13.30;10.30;;;17.70;5.00;;;;;;5076542;28;20441;-59
2021/05/12 05:40:14;;;;;;;12.87;10.97;;;17.70;8.80;;;;;;5074777;28;20655;-59
2021/05/12 05:42:39;;;;;;;12.00;10.20;;;17.70;6.70;;;;;;5084492;28;20187;-59
2021/05/12 05:45:06;;;;;;;12.37;10.80;;;17.60;6.60;;;;;;5074536;28;20484;-59
2021/05/12 05:47:31;;;;;;;13.63;11.47;;;17.70;8.10;;;;;;5081441;28;20176;-60
2021/05/12 05:49:57;;;;;;;13.60;10.90;;;17.70;7.80;;;;;;5074371;28;20427;-60
2021/05/12 05:52:22;;;;;;;14.60;11.50;;;17.80;4.80;;;;;;5074238;28;20179;-59
2021/05/12 05:54:48;;;;;;;13.93;11.10;;;;;;;;;;5074306;28;20262;-60
2021/05/12 05:57:15;;;;;;;14.67;11.80;;;17.90;1.00;;;;;;5080954;28;20179;-59
2021/05/12 05:59:41;;;;;;;13.73;12.20;;;17.80;1.00;;;;;;5084232;28;20435;-60
2021/05/12 06:02:08;;;;;;;16.70;13.00;;;17.70;1.00;;;;;;5073046;28;21008;-59
2021/05/12 06:04:33;;;;;;;16.53;13.50;;;17.70;1.00;;;;;;5078028;28;20448;-58
2021/05/12 06:06:59;;;;;;;15.93;12.80;;;19.40;1.00;;;;;;5079205;28;20445;-61
2021/05/12 06:09:25;;;;;;;19.17;13.07;;;17.70;1.00;;;;;;5073694;28;20179;-59
2021/05/12 06:11:51;;;;;;;16.50;12.87;;;17.70;1.00;;;;;;5076821;28;20191;-59
2021/05/12 06:14:19;;;;;;;13.83;12.23;;;17.70;1.00;;;;;;5079597;28;23517;-60
2021/05/12 06:16:45;;;;;;;15.00;12.27;;;;;;;;;;5074104;28;20464;-59
2021/05/12 06:19:10;;;;;;;17.00;13.30;;;17.90;1.00;;;;;;5076266;28;20445;-59
2021/05/12 06:21:36;;;;;;;17.40;13.13;;;17.90;1.00;;;;;;5094044;28;20511;-59
2021/05/12 06:24:01;;;;;;;17.07;13.90;;;17.90;1.00;;;;;;5080162;28;20664;-59
2021/05/12 06:26:27;;;;;;;16.00;13.33;;;17.90;1.00;;;;;;5073547;28;20561;-59
2021/05/12 06:28:52;;;;;;;17.80;13.40;;;17.80;1.00;;;;;;5076484;28;20187;-59
2021/05/12 06:31:18;;;;;;;19.50;13.47;;;17.90;1.00;;;;;;5076428;28;20265;-59
2021/05/12 06:33:46;;;;;;;16.13;13.13;;;17.80;1.00;;;;;;5067779;28;20204;-59
2021/05/12 06:36:12;;;;;;;15.33;12.70;;;17.80;1.00;;;;;;5084119;28;20275;-59
2021/05/12 06:38:38;;;;;;;17.80;13.80;;;17.90;1.00;;;;;;5073472;28;20449;-59
2021/05/12 06:41:04;;;;;;;17.60;14.33;;;17.90;1.00;;;;;;5071881;28;20433;-59
2021/05/12 06:43:29;;;;;;;16.37;13.60;;;18.10;1.00;;;;;;5073641;28;20242;-58
2021/05/12 06:45:56;;;;;;;17.00;13.77;;;17.80;1.00;;;;;;5072745;28;20942;-58
2021/05/12 06:48:21;;;;;;;18.83;14.90;;;17.70;1.00;;;;;;5076099;28;20467;-58
2021/05/12 06:50:48;;;;;;;21.90;14.13;;;17.60;1.00;;;;;;5074693;28;20528;-56
2021/05/12 06:53:13;;;;;;;20.30;16.03;;;17.50;1.00;;;;;;5082730;28;20195;-57
2021/05/12 06:55:39;;;;;;;21.07;16.30;;;17.50;1.00;;;;;;5073423;28;20450;-56
2021/05/12 06:58:08;;;;;;;20.00;16.30;;;17.20;2.50;;;;;;5072435;28;20229;-57
2021/05/12 07:00:34;;;;;;;23.13;17.00;;;;;;;;;;5074027;28;20537;-57
2021/05/12 07:03:00;;;;;;;20.60;17.20;;;17.30;4.50;;;;;;5072516;28;20799;-58
2021/05/12 07:05:26;;;;;;;21.47;16.87;;;17.00;15.30;;;;;;5081936;28;20521;-56
2021/05/12 07:07:51;;;;;;;21.00;17.30;;;17.00;18.40;;;;;;5086275;28;20525;-57
2021/05/12 07:10:18;;;;;;;19.23;16.10;;;16.80;28.80;;;;;;5087930;28;20179;-57
2021/05/12 07:12:43;;;;;;;23.60;17.20;;;16.80;50.50;;;;;;5072991;28;20242;-57
2021/05/12 07:15:11;;;;;;;20.63;16.03;;;16.90;44.00;;;;;;5074373;28;20473;-58
2021/05/12 07:17:36;;;;;;;20.37;16.63;;;17.00;32.20;;;;;;5086042;28;20183;-57
2021/05/12 07:20:04;;;;;;;19.40;17.23;;;17.00;37.00;;;;;;5072575;28;20765;-57
2021/05/12 07:22:29;;;;;;;19.40;15.87;;;17.00;39.80;;;;;;5071255;28;20192;-55
2021/05/12 07:24:55;;;;;;;19.20;16.57;;;17.10;38.90;;;;;;5071322;28;20788;-57
2021/05/12 07:27:22;;;;;;;20.17;16.27;;;17.20;40.70;;;;;;5073161;28;20198;-57
2021/05/12 07:29:49;;;;;;;22.93;17.67;;;17.20;42.50;;;;;;5085440;28;20274;-56
2021/05/12 07:32:15;;;;;;;24.20;18.07;;;17.10;47.80;;;;;;5073740;28;20474;-57
2021/05/12 07:34:40;;;;;;;20.30;18.07;;;17.30;45.40;;;;;;5073647;28;20513;-57
2021/05/12 07:37:06;;;;;;;20.30;17.83;;;17.20;45.40;;;;;;5068152;28;20437;-56
2021/05/12 07:39:32;;;;;;;20.90;17.77;;;17.30;43.20;;;;;;5079872;28;20681;-57
2021/05/12 07:42:02;;;;;;;20.23;16.70;;;17.50;46.00;;;;;;5079560;28;20434;-57
2021/05/12 07:44:28;;;;;;;18.47;16.57;;;17.50;31.50;;;;;;5089347;28;20186;-56
2021/05/12 07:46:54;;;;;;;19.63;17.13;;;17.70;25.10;;;;;;5078376;28;20440;-56
2021/05/12 07:49:20;;;;;;;19.57;16.30;;;18.00;16.30;;;;;;5072626;28;20453;-56
2021/05/12 07:51:45;;;;;;;19.53;17.40;;;18.30;10.70;;;;;;5072809;28;20213;-58
2021/05/12 07:54:11;;;;;;;16.40;14.67;;;18.90;1.00;;;;;;5068191;28;20211;-56
2021/05/12 07:56:36;;;;;;;18.80;15.87;;;19.30;1.00;;;;;;5072024;28;20301;-57
2021/05/12 07:59:02;;;;;;;19.60;16.47;;;19.60;1.00;;;;;;5069078;28;20644;-57
2021/05/12 08:01:31;;;;;;;18.50;16.13;;;19.70;1.00;;;;;;5071638;28;20361;-56
2021/05/12 08:03:57;;;;;;;18.83;16.83;;;19.60;1.00;;;;;;5070207;28;20178;-57
2021/05/12 08:06:22;;;;;;;19.33;17.30;;;19.50;1.00;;;;;;5067230;28;20454;-56
2021/05/12 08:08:48;;;;;;;18.00;16.10;;;19.40;1.00;;;;;;5071217;28;20230;-56
2021/05/12 08:11:14;;;;;;;17.47;15.77;;;19.40;1.00;;;;;;5071624;28;20622;-57
2021/05/12 08:13:39;;;;;;;21.10;18.07;;;19.30;1.00;;;;;;5070270;28;20561;-56
2021/05/12 08:16:05;;;;;;;20.10;18.00;;;19.30;1.00;;;;;;5083792;28;20186;-56
2021/05/12 08:18:30;;;;;;;19.90;17.03;;;19.00;1.00;;;;;;5091462;28;20183;-56
2021/05/12 08:20:57;;;;;;;21.33;17.10;;;18.60;1.00;;;;;;5082308;28;20603;-57
2021/05/12 08:23:23;;;;;;;19.70;17.70;;;18.50;1.00;;;;;;5071655;28;20270;-62
2021/05/12 08:25:49;;;;;;;20.27;17.07;;;18.30;1.00;;;;;;5070855;28;20518;-61
2021/05/12 08:28:16;;;;;;;21.50;18.87;;;18.00;1.00;;;;;;5071243;28;20437;-61
2021/05/12 08:30:46;;;;;;;19.17;17.27;;;17.80;1.00;;;;;;5070828;28;20559;-61
2021/05/12 08:33:13;;;;;;;20.43;18.20;;;17.70;1.00;;;;;;5070289;28;20462;-61
2021/05/12 08:35:41;;;;;;;18.57;16.73;;;17.70;1.00;;;;;;5070018;28;20445;-61
2021/05/12 08:38:08;;;;;;;19.90;17.80;;;17.70;1.00;;;;;;5070583;28;21046;-63
2021/05/12 08:40:34;;;;;;;21.33;18.97;;;17.50;1.00;;;;;;5069697;28;20529;-61
2021/05/12 08:43:02;;;;;;;19.70;17.50;;;17.60;1.00;;;;;;5069369;28;20608;-61
2021/05/12 08:45:29;;;;;;;19.57;17.57;;;17.60;1.00;;;;;;5068153;28;20195;-62
2021/05/12 08:47:56;;;;;;;19.40;17.50;;;17.80;1.00;;;;;;5070212;28;20907;-62
2021/05/12 08:50:23;;;;;;;17.60;15.87;;;18.10;1.00;;;;;;5070905;28;20531;-61
2021/05/12 08:52:49;;;;;;;15.77;14.23;;;18.30;1.00;;;;;;5069055;28;20446;-62
2021/05/12 08:55:15;;;;;;;15.53;14.00;;;18.50;1.00;;;;;;5070576;28;20478;-60
2021/05/12 08:57:40;;;;;;;15.53;14.03;;;18.90;1.00;;;;;;5070309;28;20476;-60
2021/05/12 09:00:07;;;;;;;15.60;13.33;;;19.00;1.00;;;;;;5081122;28;20187;-61
2021/05/12 09:02:32;;;;;;;13.87;12.50;;;19.00;1.00;;;;;;5069265;28;20269;-61
2021/05/12 09:04:58;;;;;;;14.30;12.93;;;19.20;1.00;;;;;;5067639;28;20546;-60
2021/05/12 09:07:24;;;;;;;13.77;12.27;;;19.10;1.00;;;;;;5070799;28;20179;-62
2021/05/12 09:09:50;;;;;;;12.50;10.90;;;18.90;1.00;;;;;;5070056;28;20195;-61
2021/05/12 09:12:16;;;;;;;12.33;11.03;;;18.70;1.00;;;;;;5070418;28;20258;-62
2021/05/12 09:14:42;;;;;;;11.13;10.03;;;18.40;1.00;;;;;;5070728;28;20492;-61
2021/05/12 09:17:08;;;;;;;11.37;10.03;;;18.20;1.00;;;;;;5070651;28;20440;-61
2021/05/12 09:19:34;;;;;;;12.07;10.40;;;18.30;1.00;;;;;;5070965;28;20653;-62
2021/05/12 09:22:02;;;;;;;11.70;10.60;;;18.40;1.00;;;;;;5070438;28;20192;-61
2021/05/12 09:24:36;;;;;;;11.50;10.50;;;18.20;1.00;;;;;;5068181;28;20443;-62
2021/05/12 09:27:04;;;;;;;11.33;10.17;;;18.20;1.00;;;;;;5068448;28;20455;-61
2021/05/12 09:29:38;;;;;;;14.57;11.30;;;17.90;1.00;;;;;;5070161;28;21259;-61
2021/05/12 09:32:13;;;;;;;11.60;10.40;;;17.70;1.00;;;;;;5070616;28;20453;-61
2021/05/12 09:34:56;;;;;;;12.40;11.23;;;17.80;1.00;;;;;;5070554;28;20506;-61
2021/05/12 09:37:33;;;;;;;13.07;10.87;;;17.80;1.00;;;;;;5069145;28;21250;-61
2021/05/12 09:40:03;;;;;;;12.60;11.30;;;17.80;1.00;;;;;;5072185;28;20764;-63
2021/05/12 09:42:29;;;;;;;11.80;10.17;;;17.90;1.00;;;;;;5073493;28;20426;-62
2021/05/12 09:45:13;;;;;;;12.13;11.03;;;18.00;1.00;;;;;;5073061;28;20536;-61
2021/05/12 09:47:40;;;;;;;12.43;11.13;;;18.00;1.00;;;;;;5088309;28;20185;-61
2021/05/12 09:50:17;;;;;;;13.90;12.50;;;18.00;1.00;;;;;;5084748;28;20904;-62
2021/05/12 09:52:44;;;;;;;12.57;11.27;;;18.00;1.00;;;;;;5062815;28;20445;-62
2021/05/12 09:55:13;;;;;;;14.70;13.20;;;17.80;1.00;;;;;;5066497;28;20469;-61
2021/05/12 09:58:02;;;;;;;14.63;12.43;;;17.90;1.00;;;;;;5065754;28;20500;-61
2021/05/12 10:00:32;;;;;;;13.20;11.73;;;18.00;1.00;;;;;;5066853;28;20443;-62
2021/05/12 10:02:58;;;;;;;13.13;11.80;;;18.10;1.00;;;;;;5068109;28;20837;-61
2021/05/12 10:05:25;;;;;;;14.73;12.07;;;18.20;1.00;;;;;;5067666;28;20805;-61
2021/05/12 10:07:52;;;;;;;15.03;11.73;;;18.20;1.00;;;;;;5070694;28;20517;-62
2021/05/12 10:10:35;;;;;;;14.73;12.70;;;18.30;1.00;;;;;;5068667;28;20753;-61
2021/05/12 10:13:00;;;;;;;13.40;12.10;;;18.40;1.00;;;;;;5068400;28;20465;-61
2021/05/12 10:15:26;;;;;;;13.67;11.63;;;18.50;1.00;;;;;;5065110;28;20503;-61
2021/05/12 10:17:52;;;;;;;14.13;12.83;;;18.40;1.00;;;;;;5065436;28;20542;-60
2021/05/12 10:20:17;;;;;;;16.60;12.80;;;18.40;1.00;;;;;;5067159;28;20210;-62
2021/05/12 10:22:44;;;;;;;14.33;12.87;;;18.40;1.00;;;;;;5065449;28;20423;-62
2021/05/12 10:25:09;;;;;;;12.50;11.30;;;18.50;1.00;;;;;;5066994;28;20250;-63
2021/05/12 10:27:35;;;;;;;13.60;12.30;;;18.60;1.00;;;;;;5071742;28;20424;-61
2021/05/12 10:30:05;;;;;;;14.70;12.03;;;18.60;1.00;;;;;;5072389;28;20247;-61
2021/05/12 10:32:34;;;;;;;14.17;12.77;;;18.60;1.00;;;;;;5069352;28;20195;-61
2021/05/12 10:35:15;;;;;;;15.00;12.30;;;18.70;1.00;;;;;;5072458;28;20469;-61
2021/05/12 10:37:46;;;;;;;14.60;11.80;;;18.80;1.00;;;;;;5072678;28;20780;-60
2021/05/12 10:40:17;;;;;;;14.80;12.93;;;18.80;1.00;;;;;;5068867;28;20532;-60
2021/05/12 10:42:43;;;;;;;14.50;13.07;;;18.60;1.00;;;;;;5064929;28;20441;-63
2021/05/12 10:45:10;;;;;;;14.80;13.23;;;18.60;1.00;;;;;;5069775;28;20438;-63
2021/05/12 10:47:39;;;;;;;15.03;13.47;;;18.70;1.00;;;;;;5072216;28;20499;-63
2021/05/12 10:50:05;;;;;;;16.60;12.97;;;18.50;1.00;;;;;;5069101;28;21068;-61
2021/05/12 10:52:31;;;;;;;15.43;13.57;;;18.50;1.00;;;;;;5070607;28;20490;-61
2021/05/12 10:54:56;;;;;;;15.37;13.87;;;18.60;1.00;;;;;;5067796;28;20272;-62
2021/05/12 10:57:37;;;;;;;13.57;12.27;;;18.70;1.00;;;;;;5070238;28;20218;-62
2021/05/12 11:00:04;;;;;;;15.80;13.57;;;18.50;1.00;;;;;;5067950;28;20186;-62
2021/05/12 11:03:00;;;;;;;17.67;15.70;;;18.60;1.00;;;;;;5070516;28;20472;-61
2021/05/12 11:05:41;;;;;;;16.50;14.90;;;18.80;1.00;;;;;;5068912;28;20468;-61
2021/05/12 11:08:20;;;;;;;17.47;15.57;;;18.50;1.00;;;;;;5072433;28;20433;-62
2021/05/12 11:10:49;;;;;;;16.53;14.57;;;18.20;1.00;;;;;;5071075;28;20968;-63
2021/05/12 11:13:19;;;;;;;18.63;16.13;;;18.20;1.00;;;;;;5070368;28;20461;-62
2021/05/12 11:15:52;;;;;;;16.50;14.60;;;18.00;1.00;;;;;;5069376;28;20448;-62
2021/05/12 11:18:36;;;;;;;16.77;14.70;;;17.90;1.00;;;;;;5072875;28;20911;-61
2021/05/12 11:21:17;;;;;;;16.77;14.10;;;17.80;1.00;;;;;;5066613;28;20520;-61
2021/05/12 11:24:04;;;;;;;16.43;13.90;;;17.80;1.00;;;;;;5069537;28;20435;-62
2021/05/12 11:31:07;;;;;;;16.10;14.43;;;17.80;1.00;;;;;;5077171;28;20427;-63
2021/05/12 11:31:55;;;;;;;17.47;15.33;;;17.80;1.00;;;;;;5069121;28;20526;-62
2021/05/12 11:34:21;;;;;;;18.80;15.43;;;17.90;1.00;;;;;;5081682;28;20552;-61
2021/05/12 11:36:47;;;;;;;20.50;16.50;;;17.80;1.00;;;;;;5070703;28;20465;-61
2021/05/12 11:39:12;;;;;;;18.60;16.70;;;17.60;1.00;;;;;;5070166;28;20477;-61
2021/05/12 11:41:40;;;;;;;20.20;16.50;;;17.60;1.00;;;;;;5070748;28;20179;-62
2021/05/12 11:44:06;;;;;;;18.00;16.07;;;17.70;1.00;;;;;;5069522;28;20267;-61
2021/05/12 11:46:37;;;;;;;19.00;17.00;;;17.50;1.00;;;;;;5075844;28;20452;-62
2021/05/12 11:49:07;;;;;;;23.07;19.87;;;17.70;1.00;;;;;;5068537;28;20449;-62
2021/05/12 11:51:44;;;;;;;23.63;18.80;;;17.60;1.00;;;;;;5069014;28;20421;-62
2021/05/12 11:54:21;;;;;;;23.17;18.90;;;17.50;1.00;;;;;;5071443;28;20807;-62
2021/05/12 11:56:49;;;;;;;22.00;19.43;;;17.40;1.00;;;;;;5064523;28;20472;-62
2021/05/12 11:59:19;;;;;;;23.80;20.90;;;17.30;1.00;;;;;;5067219;28;20490;-63
2021/05/12 12:01:45;;;;;;;26.20;21.90;;;17.20;1.00;;;;;;5067911;28;20442;-61
2021/05/12 12:07:07;;;;;;;32.73;24.83;;;16.70;99.90;;;;;;5057806;28;20858;-62
2021/05/12 12:09:33;;;;;;;33.70;24.70;;;16.40;99.90;;;;;;5072574;28;20528;-61
2021/05/12 12:11:59;;;;;;;34.00;26.47;;;16.20;99.90;;;;;;5064993;28;20862;-60
2021/05/12 12:14:29;;;;;;;35.40;27.70;;;16.20;99.90;;;;;;5068420;28;20245;-62
2021/05/12 12:16:55;;;;;;;34.03;26.10;;;16.20;99.90;;;;;;5068123;28;20985;-62
2021/05/12 12:19:21;;;;;;;36.37;27.00;;;16.20;99.90;;;;;;5069900;28;20454;-62
2021/05/12 12:21:49;;;;;;;33.23;26.23;;;16.20;99.90;;;;;;5067833;28;20719;-61
2021/05/12 12:24:18;;;;;;;34.43;24.97;;;16.30;99.90;;;;;;5069258;28;20240;-62
2021/05/12 12:26:47;;;;;;;36.03;26.57;;;16.30;99.90;;;;;;5065045;28;20614;-63
2021/05/12 12:29:13;;;;;;;33.07;26.17;;;16.30;99.90;;;;;;5069218;28;20441;-62
2021/05/12 12:31:48;;;;;;;31.87;24.30;;;16.30;99.90;;;;;;5068896;28;20472;-62
2021/05/12 12:34:20;;;;;;;35.80;27.07;;;16.60;99.90;;;;;;5066983;28;20453;-61
2021/05/12 12:37:06;;;;;;;33.13;26.10;;;16.70;99.90;;;;;;5070159;28;20843;-61
2021/05/12 12:40:01;;;;;;;32.40;25.27;;;16.90;99.90;;;;;;5067207;28;20520;-61